Cokeville, Wyoming
Current Conditions -  °F | °C
As of 9:20 PM on Sunday 23 Nov 2014 (Local Time) from KEMM Reporting Station
Scattered Clouds Scattered Clouds  
Wind Chill:   Ceiling: Unl
Heat Index: 21°   Visibility: 10mi
Dew Point: 18°   Wind: 20mph
Humidity: 86%   Direction: 250°WSW
Pressure: 30.03"   Gusts: 25mph
Location:  42.08°N, 110.96°W
Report Text: KEMM 240420Z AUTO 25017G22KT 10SM SCT016 M06/M08 A3003 RMK AO2
Loading
Personal Weather Stations






























Interactive Weather Map New forecast layout! Learn more

10-Day Weather Forecast

Advertisements
Track Severe Weather on mobile